createdAt,value
2018-07-10T00:00:04.652Z,3.43
2018-07-10T00:03:24.652Z,3.03
2018-07-10T00:06:21.508Z,3.37
2018-07-10T00:09:11.351Z,5.40
2018-07-10T00:11:40.225Z,3.33
2018-07-10T00:14:09.586Z,4.07
2018-07-10T00:16:38.463Z,4.40
2018-07-10T00:19:07.421Z,2.93
2018-07-10T00:21:36.426Z,4.63
2018-07-10T00:24:05.565Z,4.13
2018-07-10T00:26:36.745Z,3.00
2018-07-10T00:29:05.782Z,3.70
2018-07-10T00:31:34.858Z,4.43
2018-07-10T00:34:03.756Z,4.37
2018-07-10T00:36:35.592Z,2.60
2018-07-10T00:39:04.950Z,3.57
2018-07-10T00:41:35.001Z,2.73
2018-07-10T00:44:04.920Z,4.03
2018-07-10T00:46:34.911Z,3.67
2018-07-10T00:49:03.865Z,3.73
2018-07-10T00:51:39.742Z,4.75
2018-07-10T00:54:08.938Z,4.90
2018-07-10T00:56:41.195Z,3.77
2018-07-10T00:59:08.677Z,3.60
2018-07-10T01:01:37.762Z,4.77
2018-07-10T01:04:06.685Z,3.87
2018-07-10T01:06:35.665Z,6.77
2018-07-10T01:09:08.029Z,4.27
2018-07-10T01:11:37.024Z,5.80
2018-07-10T01:14:06.186Z,3.77
2018-07-10T01:16:36.366Z,4.87
2018-07-10T01:19:23.182Z,4.12
2018-07-10T01:21:55.044Z,3.47
2018-07-10T01:24:23.962Z,3.90
2018-07-10T01:26:52.996Z,5.13
2018-07-10T01:29:39.942Z,4.40
2018-07-10T01:32:08.928Z,3.50
2018-07-10T01:34:37.969Z,3.83
2018-07-10T01:37:07.219Z,3.13
2018-07-10T01:39:36.249Z,7.00
2018-07-10T01:42:05.266Z,2.07
2018-07-10T01:44:34.300Z,6.90
2018-07-10T01:47:03.335Z,3.30
2018-07-10T01:49:35.089Z,6.70
2018-07-10T01:52:04.091Z,4.17
2018-07-10T01:54:33.105Z,5.67
2018-07-10T01:57:02.220Z,5.10
2018-07-10T01:59:31.595Z,3.07
2018-07-10T02:02:00.582Z,3.40
2018-07-10T02:04:29.745Z,4.17
2018-07-10T02:06:58.651Z,5.73
2018-07-10T02:09:27.806Z,5.90
2018-07-10T02:11:56.900Z,3.57
2018-07-10T02:14:26.025Z,6.67
2018-07-10T02:16:56.705Z,4.13
2018-07-10T02:19:26.399Z,3.20
2018-07-10T02:21:55.501Z,5.03
2018-07-10T02:24:25.879Z,5.47
2018-07-10T02:26:54.989Z,4.83
2018-07-10T02:29:23.937Z,4.57
2018-07-10T02:31:52.930Z,7.63
2018-07-10T02:34:21.992Z,5.03
2018-07-10T02:36:51.025Z,4.23
2018-07-10T02:39:20.086Z,3.67
2018-07-10T02:41:49.144Z,3.57
2018-07-10T02:44:18.367Z,4.63
2018-07-10T02:46:47.337Z,6.63
2018-07-10T02:49:20.755Z,4.50
2018-07-10T02:52:04.311Z,4.37
2018-07-10T02:54:35.495Z,5.73
2018-07-10T02:57:07.067Z,4.87
2018-07-10T02:59:40.194Z,3.73
2018-07-10T03:02:23.051Z,7.63
2018-07-10T03:04:59.363Z,6.40
2018-07-10T03:07:34.441Z,4.70
2018-07-10T03:10:03.537Z,3.20
2018-07-10T03:12:33.526Z,5.50
2018-07-10T03:15:13.408Z,4.33
2018-07-10T03:17:42.455Z,5.77
2018-07-10T03:20:11.837Z,6.33
2018-07-10T03:22:40.833Z,5.30
2018-07-10T03:25:10.184Z,4.83
2018-07-10T03:27:39.357Z,2.97
2018-07-10T03:30:08.314Z,5.57
2018-07-10T03:32:39.769Z,5.23
2018-07-10T03:35:06.248Z,5.17
2018-07-10T03:37:35.179Z,4.97
2018-07-10T03:40:04.201Z,7.50
2018-07-10T03:42:33.232Z,5.17
2018-07-10T03:45:02.272Z,6.10
2018-07-10T03:47:31.312Z,8.53
2018-07-10T03:50:00.421Z,7.43
2018-07-10T03:52:31.544Z,6.37
2018-07-10T03:55:03.006Z,6.67
2018-07-10T03:57:31.886Z,7.30
2018-07-10T04:00:14.168Z,5.77
2018-07-10T04:02:48.770Z,10.53
2018-07-10T04:05:21.288Z,9.00
2018-07-10T04:07:50.164Z,6.43
2018-07-10T04:10:21.232Z,6.70
2018-07-10T04:12:50.930Z,7.70
2018-07-10T04:15:20.184Z,7.47
2018-07-10T04:18:26.899Z,4.10
2018-07-10T04:21:33.223Z,5.83
2018-07-10T04:24:11.046Z,4.57
2018-07-10T04:26:44.550Z,8.40
2018-07-10T04:29:46.770Z,7.37
2018-07-10T04:32:15.778Z,6.23
2018-07-10T04:34:49.114Z,5.20
2018-07-10T04:37:18.131Z,6.50
2018-07-10T04:39:47.155Z,5.47
2018-07-10T04:42:20.239Z,4.73
2018-07-10T04:45:06.100Z,4.47
2018-07-10T04:48:02.064Z,6.83
2018-07-10T04:50:41.004Z,8.43
2018-07-10T04:53:15.182Z,5.67
2018-07-10T04:55:44.388Z,5.57
2018-07-10T04:58:31.411Z,7.60
2018-07-10T05:01:09.476Z,3.70
2018-07-10T05:03:38.705Z,7.33
2018-07-10T05:06:08.317Z,4.73
2018-07-10T05:08:37.279Z,9.27
2018-07-10T05:11:06.365Z,4.67
2018-07-10T05:13:38.610Z,4.80
2018-07-10T05:16:07.612Z,6.10
2018-07-10T05:18:36.822Z,8.53
2018-07-10T05:21:15.488Z,6.40
2018-07-10T05:23:47.156Z,5.63
2018-07-10T05:26:17.118Z,7.90
2018-07-10T05:28:49.915Z,9.57
2018-07-10T05:31:19.235Z,3.83
2018-07-10T05:33:49.569Z,5.50
2018-07-10T05:36:23.642Z,6.40
2018-07-10T05:39:08.582Z,6.90
2018-07-10T05:41:48.115Z,6.87
2018-07-10T05:44:22.261Z,8.67
2018-07-10T05:46:51.355Z,6.43
2018-07-10T05:49:20.246Z,7.77
2018-07-10T05:51:50.947Z,8.90
2018-07-10T05:54:20.700Z,7.70
2018-07-10T05:56:49.750Z,8.43
2018-07-10T05:59:18.655Z,9.77
2018-07-10T06:01:47.596Z,7.73
2018-07-10T06:04:19.623Z,8.63
2018-07-10T06:06:48.577Z,8.50
2018-07-10T06:09:18.359Z,4.87
2018-07-10T06:11:47.380Z,8.33
2018-07-10T06:14:16.405Z,7.10
2018-07-10T06:16:45.635Z,9.07
2018-07-10T06:19:15.104Z,10.87
2018-07-10T06:21:53.107Z,6.33
2018-07-10T06:24:29.906Z,8.67
2018-07-10T06:27:06.174Z,7.23
2018-07-10T06:29:56.919Z,8.73
2018-07-10T06:32:28.982Z,8.13
2018-07-10T06:35:07.606Z,5.83
2018-07-10T06:37:37.564Z,8.03
2018-07-10T06:40:07.437Z,8.90
2018-07-10T06:42:49.356Z,5.50
2018-07-10T06:45:18.351Z,6.67
2018-07-10T06:47:49.274Z,6.03
2018-07-10T06:50:20.998Z,3.97
2018-07-10T06:52:52.617Z,8.33
2018-07-10T06:55:21.892Z,5.60
2018-07-10T06:57:53.006Z,9.73
2018-07-10T07:00:21.942Z,10.33
2018-07-10T07:02:50.993Z,7.50
2018-07-10T07:05:20.075Z,4.20
2018-07-10T07:07:49.151Z,5.00
2018-07-10T07:10:18.269Z,6.07
2018-07-10T07:12:47.445Z,6.70
2018-07-10T07:15:20.740Z,12.73
2018-07-10T07:17:51.376Z,5.67
2018-07-10T07:20:20.818Z,9.07
2018-07-10T07:22:50.077Z,7.70
2018-07-10T07:25:21.674Z,10.70
2018-07-10T07:27:50.709Z,10.90
2018-07-10T07:30:19.780Z,7.90
2018-07-10T07:32:49.613Z,10.77
2018-07-10T07:35:18.903Z,7.37
2018-07-10T07:37:48.028Z,7.17
2018-07-10T07:40:17.477Z,8.87
2018-07-10T07:42:46.495Z,5.97
2018-07-10T07:45:15.523Z,9.50
2018-07-10T07:47:44.494Z,9.40
2018-07-10T07:50:13.540Z,7.77
2018-07-10T07:52:42.587Z,11.50
2018-07-10T07:55:12.719Z,7.50
2018-07-10T07:57:41.783Z,7.17
2018-07-10T08:00:10.774Z,12.07
2018-07-10T08:02:39.778Z,12.90
2018-07-10T08:05:08.783Z,10.87
2018-07-10T08:07:37.717Z,9.57
2018-07-10T08:10:06.864Z,8.60
2018-07-10T08:12:35.927Z,7.60
2018-07-10T08:15:04.907Z,14.27
2018-07-10T08:17:37.330Z,10.27
2018-07-10T08:20:06.999Z,11.30
2018-07-10T08:22:36.202Z,7.30
2018-07-10T08:25:07.913Z,11.17
2018-07-10T08:27:37.357Z,12.10
2018-07-10T08:30:06.708Z,11.15
2018-07-10T08:32:36.660Z,12.83
2018-07-10T08:35:06.084Z,12.20
2018-07-10T08:37:35.027Z,14.20
2018-07-10T08:40:04.146Z,9.97
2018-07-10T08:42:33.113Z,8.73
2018-07-10T08:45:02.458Z,11.87
2018-07-10T08:47:31.425Z,11.50
2018-07-10T08:50:00.470Z,15.23
2018-07-10T08:52:29.415Z,11.93
2018-07-10T08:54:58.418Z,15.00
2018-07-10T08:57:27.778Z,11.73
2018-07-10T08:59:56.725Z,12.03
2018-07-10T09:02:25.634Z,12.57
2018-07-10T09:04:58.629Z,16.23
2018-07-10T09:07:27.643Z,7.83
2018-07-10T09:09:56.509Z,12.43
2018-07-10T09:12:25.498Z,14.15
2018-07-10T09:14:54.439Z,13.23
2018-07-10T09:17:23.408Z,14.77
2018-07-10T09:19:52.348Z,11.63
2018-07-10T09:22:22.314Z,12.13
2018-07-10T09:24:56.356Z,15.50
2018-07-10T09:27:25.303Z,8.93
2018-07-10T09:29:54.447Z,12.63
2018-07-10T09:32:40.954Z,10.87
2018-07-10T09:35:09.922Z,12.97
2018-07-10T09:37:45.994Z,11.63
2018-07-10T09:40:19.315Z,11.97
2018-07-10T09:42:55.970Z,11.00
2018-07-10T09:45:34.802Z,11.80
2018-07-10T09:48:04.757Z,11.30
2018-07-10T09:50:33.768Z,12.47
2018-07-10T09:53:03.464Z,10.43
2018-07-10T09:55:32.585Z,12.87
2018-07-10T09:58:02.330Z,12.00
2018-07-10T10:00:49.969Z,8.87
2018-07-10T10:03:18.842Z,11.63
2018-07-10T10:05:47.770Z,14.25
2018-07-10T10:08:16.721Z,11.47
2018-07-10T10:10:45.669Z,11.00
2018-07-10T10:13:14.607Z,9.37
2018-07-10T10:15:43.671Z,14.80
2018-07-10T10:18:12.747Z,11.30
2018-07-10T10:20:43.644Z,10.83
2018-07-10T10:23:14.634Z,8.43
2018-07-10T10:25:49.813Z,10.27
2018-07-10T10:28:17.324Z,12.80
2018-07-10T10:30:46.296Z,13.23
2018-07-10T10:33:15.302Z,14.53
2018-07-10T10:35:44.358Z,14.23
2018-07-10T10:38:13.270Z,14.40
2018-07-10T10:40:42.241Z,12.37
2018-07-10T10:43:12.885Z,13.13
2018-07-10T10:45:45.516Z,15.23
2018-07-10T10:48:14.951Z,20.70
2018-07-10T10:50:48.591Z,18.30
2018-07-10T10:53:18.410Z,16.03
2018-07-10T10:55:47.316Z,14.77
2018-07-10T10:58:16.378Z,19.70
2018-07-10T11:00:45.480Z,14.70
2018-07-10T11:03:14.516Z,22.60
2018-07-10T11:05:44.914Z,20.90
2018-07-10T11:08:14.446Z,20.40
2018-07-10T11:10:45.013Z,19.30
2018-07-10T11:13:15.559Z,16.53
2018-07-10T11:15:46.010Z,20.80
2018-07-10T11:19:07.341Z,23.18
2018-07-10T11:21:57.470Z,20.20
2018-07-10T11:24:26.809Z,22.20
2018-07-10T11:26:55.753Z,20.60
2018-07-10T11:29:24.738Z,26.80
2018-07-10T11:31:53.729Z,19.17
2018-07-10T11:34:22.874Z,20.20
2018-07-10T11:36:51.912Z,27.47
2018-07-10T11:39:21.013Z,22.70
2018-07-10T11:41:51.293Z,22.93
2018-07-10T11:44:20.317Z,28.57
2018-07-10T11:46:49.671Z,21.73
2018-07-10T11:49:18.681Z,21.17
2018-07-10T11:51:47.786Z,21.17
2018-07-10T11:54:17.251Z,23.87
2018-07-10T11:56:46.205Z,19.10
2018-07-10T11:59:15.184Z,18.40
2018-07-10T12:01:44.159Z,20.83
2018-07-10T12:04:13.145Z,19.95
2018-07-10T12:06:53.305Z,18.27
2018-07-10T12:09:22.268Z,23.40
2018-07-10T12:11:51.430Z,26.77
2018-07-10T12:14:20.469Z,19.73
2018-07-10T12:16:49.392Z,19.33
2018-07-10T12:19:18.365Z,20.07
2018-07-10T12:21:47.328Z,20.70
2018-07-10T12:24:16.319Z,18.40
2018-07-10T12:26:45.340Z,24.40
2018-07-10T12:29:14.549Z,19.10
2018-07-10T12:31:43.782Z,25.77
2018-07-10T12:34:12.757Z,20.53
2018-07-10T12:36:41.711Z,18.17
2018-07-10T12:39:13.154Z,21.43
2018-07-10T12:41:42.269Z,20.90
2018-07-10T12:44:11.161Z,22.73
2018-07-10T12:46:40.266Z,22.37
2018-07-10T12:49:09.299Z,23.73
2018-07-10T12:51:38.260Z,27.47
2018-07-10T12:54:07.294Z,21.90
2018-07-10T12:56:36.186Z,22.00
2018-07-10T12:59:05.147Z,18.67
2018-07-10T13:01:34.174Z,15.57
2018-07-10T13:04:06.272Z,17.97
2018-07-10T13:06:35.192Z,17.67
2018-07-10T13:09:04.317Z,13.80
2018-07-10T13:11:33.286Z,15.03
2018-07-10T13:14:02.288Z,15.33
2018-07-10T13:16:31.288Z,13.57
2018-07-10T13:19:02.916Z,13.47
2018-07-10T13:21:31.795Z,16.10
2018-07-10T13:24:00.826Z,12.50
2018-07-10T13:26:29.719Z,13.13
2018-07-10T13:28:58.773Z,9.67
2018-07-10T13:31:27.815Z,12.87
2018-07-10T13:33:56.722Z,12.47
2018-07-10T13:36:25.865Z,16.47
2018-07-10T13:38:54.774Z,15.70
2018-07-10T13:41:24.143Z,9.57
2018-07-10T13:43:56.461Z,10.20
2018-07-10T13:46:25.316Z,10.33
2018-07-10T13:48:54.334Z,9.80
2018-07-10T13:51:23.342Z,11.93
2018-07-10T13:53:52.342Z,10.70
2018-07-10T13:56:21.368Z,12.30
2018-07-10T13:58:50.308Z,10.43
2018-07-10T14:01:20.234Z,11.63
2018-07-10T14:03:49.215Z,11.70
2018-07-10T14:06:18.228Z,10.03
2018-07-10T14:08:47.281Z,11.63
2018-07-10T14:11:16.215Z,12.17
2018-07-10T14:13:45.181Z,9.93
2018-07-10T14:16:14.083Z,8.10
2018-07-10T14:18:43.208Z,11.40
2018-07-10T14:21:13.653Z,10.93
2018-07-10T14:23:42.680Z,8.83
2018-07-10T14:26:11.634Z,10.40
2018-07-10T14:28:40.574Z,12.70
2018-07-10T14:31:09.497Z,13.00
2018-07-10T14:33:38.501Z,9.10
2018-07-10T14:36:07.467Z,12.23
2018-07-10T14:38:42.215Z,9.48
2018-07-10T14:41:11.595Z,12.00
2018-07-10T14:43:47.949Z,8.13
2018-07-10T14:46:21.785Z,10.17
2018-07-10T14:49:03.807Z,8.03
2018-07-10T14:51:38.785Z,8.48
2018-07-10T14:54:07.797Z,9.57
2018-07-10T14:56:36.839Z,6.60
2018-07-10T14:59:06.269Z,6.37
2018-07-10T15:01:35.140Z,7.63
2018-07-10T15:04:04.204Z,10.07
2018-07-10T15:06:33.082Z,8.70
2018-07-10T15:09:02.166Z,9.77
2018-07-10T15:11:31.144Z,8.13
2018-07-10T15:14:09.808Z,10.13
2018-07-10T15:16:56.156Z,9.65
2018-07-10T15:19:27.823Z,10.08
2018-07-10T15:21:56.628Z,10.93
2018-07-10T15:24:25.618Z,8.93
2018-07-10T15:26:54.565Z,12.18
2018-07-10T15:29:30.182Z,8.57
2018-07-10T15:32:00.256Z,10.60
2018-07-10T15:34:29.288Z,9.33
2018-07-10T15:36:58.290Z,7.43
2018-07-10T15:39:27.224Z,11.20
2018-07-10T15:41:56.255Z,7.23
2018-07-10T15:44:27.876Z,8.30
2018-07-10T15:46:57.465Z,10.77
2018-07-10T15:49:30.172Z,7.70
2018-07-10T15:52:00.238Z,6.93
2018-07-10T15:54:30.603Z,39.57
2018-07-10T15:56:59.636Z,12.10
2018-07-10T15:59:32.376Z,9.83
2018-07-10T16:02:01.835Z,8.45
2018-07-10T16:04:30.864Z,8.87
2018-07-10T16:06:59.963Z,8.53
2018-07-10T16:09:29.643Z,15.43
2018-07-10T16:12:02.472Z,9.00
2018-07-10T16:14:31.492Z,14.30
2018-07-10T16:17:02.346Z,12.47
2018-07-10T16:19:47.018Z,13.03
2018-07-10T16:22:24.785Z,13.18
2018-07-10T16:25:19.600Z,9.80
2018-07-10T16:27:48.700Z,12.27
2018-07-10T16:30:25.958Z,11.37
2018-07-10T16:32:54.817Z,11.53
2018-07-10T16:35:28.528Z,7.83
2018-07-10T16:37:58.796Z,9.10
2018-07-10T16:40:27.641Z,12.73
2018-07-10T16:42:57.261Z,15.47
2018-07-10T16:45:33.791Z,5.27
2018-07-10T16:48:32.165Z,6.63
2018-07-10T16:51:10.707Z,7.67
2018-07-10T16:53:39.703Z,5.43
2018-07-10T16:56:08.715Z,7.17
2018-07-10T16:58:41.729Z,9.17
2018-07-10T17:01:10.787Z,4.87
2018-07-10T17:03:42.473Z,4.03
2018-07-10T17:06:13.442Z,6.87
2018-07-10T17:08:42.474Z,7.40
2018-07-10T17:11:11.469Z,4.03
2018-07-10T17:13:40.507Z,5.60
2018-07-10T17:16:09.619Z,5.73
2018-07-10T17:18:38.592Z,6.40
2018-07-10T17:21:07.867Z,6.47
2018-07-10T17:23:36.975Z,7.33
2018-07-10T17:26:06.208Z,5.17
2018-07-10T17:28:35.161Z,8.00
2018-07-10T17:31:04.089Z,4.80
2018-07-10T17:33:33.003Z,5.63
2018-07-10T17:36:01.982Z,7.17
2018-07-10T17:38:30.961Z,8.50
2018-07-10T17:41:00.054Z,5.90
2018-07-10T17:43:29.006Z,4.33
2018-07-10T17:45:58.045Z,7.27
2018-07-10T17:48:27.008Z,7.97
2018-07-10T17:50:55.983Z,6.17
2018-07-10T17:53:24.966Z,7.40
2018-07-10T17:55:59.110Z,8.13
2018-07-10T17:58:28.579Z,8.30
2018-07-10T18:00:57.596Z,4.17
2018-07-10T18:03:26.533Z,9.00
2018-07-10T18:05:55.480Z,22.10
2018-07-10T18:08:24.525Z,6.87
2018-07-10T18:10:53.527Z,12.30
2018-07-10T18:13:25.577Z,6.63
2018-07-10T18:15:54.661Z,8.70
2018-07-10T18:18:23.917Z,10.23
2018-07-10T18:20:52.814Z,5.23
2018-07-10T18:23:23.519Z,3.97
2018-07-10T18:25:52.322Z,5.17
2018-07-10T18:28:21.295Z,4.43
2018-07-10T18:30:50.281Z,8.27
2018-07-10T18:33:19.282Z,6.45
2018-07-10T18:35:48.423Z,6.03
2018-07-10T18:38:17.585Z,6.60
2018-07-10T18:40:46.523Z,6.97
2018-07-10T18:43:15.578Z,6.60
2018-07-10T18:45:44.574Z,8.53
2018-07-10T18:48:13.631Z,7.77
2018-07-10T18:50:44.630Z,11.57
2018-07-10T18:53:13.602Z,4.37
2018-07-10T18:58:37.572Z,8.30
2018-07-10T19:01:27.395Z,6.57
2018-07-10T19:03:58.443Z,7.50
2018-07-10T19:06:27.408Z,8.00
2018-07-10T19:08:56.547Z,5.13
2018-07-10T19:11:26.850Z,6.80
2018-07-10T19:14:00.056Z,5.83
2018-07-10T19:16:30.402Z,8.67
2018-07-10T19:19:04.615Z,8.13
2018-07-10T19:21:40.204Z,6.50
2018-07-10T19:24:18.274Z,7.80
2018-07-10T19:26:47.982Z,9.40
2018-07-10T19:29:28.902Z,6.17
2018-07-10T19:31:57.884Z,6.30
2018-07-10T19:34:26.979Z,5.87
2018-07-10T19:36:55.902Z,7.00
2018-07-10T19:39:24.791Z,4.47
2018-07-10T19:41:53.793Z,7.70
2018-07-10T19:44:24.364Z,5.30
2018-07-10T19:46:53.527Z,7.50
2018-07-10T19:49:23.703Z,5.70
2018-07-10T19:51:52.905Z,6.10
2018-07-10T19:54:22.297Z,4.27
2018-07-10T19:56:51.384Z,8.23
2018-07-10T19:59:20.390Z,4.40
2018-07-10T20:01:55.297Z,6.53
2018-07-10T20:04:41.777Z,3.80
2018-07-10T20:07:23.957Z,6.00
2018-07-10T20:10:10.538Z,7.73
2018-07-10T20:13:18.316Z,6.20
2018-07-10T20:16:10.120Z,5.20
2018-07-10T20:19:17.815Z,6.30
2018-07-10T20:22:14.307Z,9.80
2018-07-10T20:25:28.740Z,4.73
2018-07-10T20:28:05.650Z,5.37
2018-07-10T20:31:14.185Z,5.23
2018-07-10T20:34:26.225Z,4.97
2018-07-10T20:36:55.573Z,8.63
2018-07-10T20:39:37.850Z,4.30
2018-07-10T20:42:06.824Z,6.03
2018-07-10T20:44:53.520Z,7.90
2018-07-10T20:47:22.621Z,4.20
2018-07-10T20:50:19.899Z,4.43
2018-07-10T20:52:53.673Z,6.20
2018-07-10T20:55:25.094Z,8.97
2018-07-10T20:57:59.365Z,4.77
2018-07-10T21:00:40.619Z,7.30
2018-07-10T21:03:49.555Z,5.37
2018-07-10T21:06:21.643Z,7.23
2018-07-10T21:09:09.732Z,7.77
2018-07-10T21:12:01.069Z,7.53
2018-07-10T21:15:10.252Z,5.93
2018-07-10T21:18:14.677Z,5.80
2018-07-10T21:20:57.576Z,7.77
2018-07-10T21:24:00.459Z,5.47
2018-07-10T21:27:06.665Z,4.57
2018-07-10T21:29:47.445Z,6.17
2018-07-10T21:32:44.471Z,6.53
2018-07-10T21:35:15.790Z,6.23
2018-07-10T21:37:56.946Z,11.53
2018-07-10T21:40:41.668Z,6.53
2018-07-10T21:43:24.278Z,6.13
2018-07-10T21:46:00.517Z,7.70
2018-07-10T21:48:41.292Z,6.23
2018-07-10T21:51:10.169Z,5.90
2018-07-10T21:53:39.296Z,6.77
2018-07-10T21:56:08.294Z,7.37
2018-07-10T21:58:38.553Z,4.73
2018-07-10T22:01:35.212Z,9.17
2018-07-10T22:04:04.325Z,7.33
2018-07-10T22:06:33.885Z,4.70
2018-07-10T22:09:02.887Z,4.07
2018-07-10T22:11:31.794Z,9.00
2018-07-10T22:14:00.823Z,6.37
2018-07-10T22:16:29.900Z,5.93
2018-07-10T22:18:59.050Z,5.60
2018-07-10T22:21:28.253Z,7.70
2018-07-10T22:23:57.448Z,6.10
2018-07-10T22:26:26.738Z,8.17
2018-07-10T22:28:56.334Z,11.43
2018-07-10T22:31:43.098Z,8.27
2018-07-10T22:34:12.188Z,4.23
2018-07-10T22:36:41.065Z,6.13
2018-07-10T22:39:10.080Z,11.87
2018-07-10T22:41:42.123Z,9.20
2018-07-10T22:44:11.126Z,6.87
2018-07-10T22:46:40.075Z,8.10
2018-07-10T22:49:10.222Z,8.33
2018-07-10T22:51:39.153Z,8.10
2018-07-10T22:54:10.746Z,7.33
2018-07-10T22:56:39.745Z,6.93
2018-07-10T22:59:08.650Z,8.60
2018-07-10T23:01:38.026Z,7.08
2018-07-10T23:04:07.946Z,8.53
2018-07-10T23:06:40.461Z,4.63
2018-07-10T23:09:09.380Z,8.13
2018-07-10T23:11:39.178Z,4.27
2018-07-10T23:14:08.124Z,7.20
2018-07-10T23:16:37.940Z,6.30
2018-07-10T23:19:07.503Z,7.57
2018-07-10T23:21:37.719Z,7.20
2018-07-10T23:24:07.445Z,5.23
2018-07-10T23:26:36.573Z,10.43
2018-07-10T23:29:05.700Z,7.73
2018-07-10T23:31:34.615Z,7.80
2018-07-10T23:34:22.954Z,5.37
2018-07-10T23:36:59.548Z,6.77
2018-07-10T23:39:47.607Z,10.17
2018-07-10T23:42:40.957Z,6.03
2018-07-10T23:45:16.720Z,9.70
2018-07-10T23:47:47.451Z,4.07
2018-07-10T23:50:24.387Z,6.83
2018-07-10T23:53:30.154Z,5.23
2018-07-10T23:55:59.062Z,6.10
2018-07-10T23:58:28.117Z,9.63
